West Lincoln

*Note: All times are displayed in the local standard time of the station location.
**Rain - Equipment is designed to accurately record liquid precipitation; under conditions when precipitation is not in liquid form, the data displayed may not properly reflect rainfall values.

Date Max Temp
(°C)
Min Temp
(°C)
Avg Temp
(°C)
Rain (mm) Avg RH (%)
Sat, Sep 14, 2019 22.9 15.0 18.8 0.2 76.6
Fri, Sep 13, 2019 22.9 10.9 17.1 6.8 85.4
Thu, Sep 12, 2019 18.9 12.0 15.3 9.0 90.3
Wed, Sep 11, 2019 28.9 18.8 22.9 26.0 87.7
Tue, Sep 10, 2019 27.4 8.2 18.9 0.0 74.3
Mon, Sep 09, 2019 20.1 8.6 13.6 0.0 82.7
Sun, Sep 08, 2019 20.4 9.7 14.6 0.0 79.9
DateTime Avg Temp (°C) Rain (mm) RH (%)
Sun, Sep 15, 2019 21:00 14.7 0.0 99.2
Sun, Sep 15, 2019 20:00 14.8 0.0 97.3
Sun, Sep 15, 2019 19:00 15.2 0.0 95.7
Sun, Sep 15, 2019 18:00 15.4 0.0 95.7
Sun, Sep 15, 2019 17:00 19.2 0.0 84.6
Sun, Sep 15, 2019 16:00 20.0 0.0 78.2
Sun, Sep 15, 2019 15:00 18.2 0.0 85.0
Sun, Sep 15, 2019 14:00 17.5 0.0 86.6
Sun, Sep 15, 2019 13:00 16.4 0.0 91.0
Sun, Sep 15, 2019 12:00 18.3 0.0 78.9
Sun, Sep 15, 2019 11:00 19.6 0.0 73.0
Sun, Sep 15, 2019 10:00 17.6 0.0 84.1
Sun, Sep 15, 2019 09:00 16.0 0.0 98.2
Sun, Sep 15, 2019 08:00 13.0 0.0 99.9
Sun, Sep 15, 2019 07:00 11.9 0.0 99.9
Sun, Sep 15, 2019 06:00 12.6 0.0 99.9
Sun, Sep 15, 2019 05:00 11.9 0.0 99.9
Sun, Sep 15, 2019 04:00 13.1 0.0 99.9
Sun, Sep 15, 2019 03:00 13.0 0.0 99.9
Sun, Sep 15, 2019 02:00 13.3 0.0 99.9
Sun, Sep 15, 2019 01:00 14.3 0.0 97.9
Sun, Sep 15, 2019 00:00 15.7 0.0 93.7
Sat, Sep 14, 2019 23:00 15.5 0.0 93.6
Sat, Sep 14, 2019 22:00 15.1 0.0 94.7
Sat, Sep 14, 2019 21:00 15.4 0.0 90.1
Sat, Sep 14, 2019 20:00 17.4 0.0 69.2
Sat, Sep 14, 2019 19:00 20.7 0.0 54.1
Sat, Sep 14, 2019 18:00 22.0 0.0 49.9
Sat, Sep 14, 2019 17:00 22.3 0.0 52.3
Sat, Sep 14, 2019 16:00 22.0 0.0 54.4
Sat, Sep 14, 2019 15:00 22.2 0.0 54.3
Sat, Sep 14, 2019 14:00 22.6 0.0 52.9
Sat, Sep 14, 2019 13:00 20.4 0.0 59.0
Sat, Sep 14, 2019 12:00 20.4 0.0 59.8
Sat, Sep 14, 2019 11:00 19.5 0.0 64.0
Sat, Sep 14, 2019 10:00 18.3 0.0 69.0
Sat, Sep 14, 2019 09:00 17.0 0.0 77.4
Sat, Sep 14, 2019 08:00 15.9 0.0 84.2
Sat, Sep 14, 2019 07:00 16.6 0.0 81.8
Sat, Sep 14, 2019 06:00 18.8 0.0 89.6
Sat, Sep 14, 2019 05:00 19.4 0.0 97.3
Sat, Sep 14, 2019 04:00 18.8 0.0 97.5
Sat, Sep 14, 2019 03:00 18.3 0.0 99.9
Sat, Sep 14, 2019 02:00 18.3 0.0 99.3
Sat, Sep 14, 2019 01:00 18.0 0.2 99.9
Sat, Sep 14, 2019 00:00 18.1 0.4 97.9
Fri, Sep 13, 2019 23:00 18.1 2.8 93.8
Fri, Sep 13, 2019 22:00 18.8 0.0 84.9


asterix Register now to access more data! asterix